sensor_id;sensor_type;location;lat;lon;timestamp;P1;durP1;ratioP1;P2;durP2;ratioP2
52025;SDS011;38041;40.058;18.328;2023-03-01T00:01:05;20.77;;;3.93;;
52025;SDS011;38041;40.058;18.328;2023-03-01T00:03:33;30.73;;;3.30;;
52025;SDS011;38041;40.058;18.328;2023-03-01T00:06:01;28.67;;;4.10;;
52025;SDS011;38041;40.058;18.328;2023-03-01T00:08:29;35.63;;;5.57;;
52025;SDS011;38041;40.058;18.328;2023-03-01T00:11:16;31.53;;;5.87;;
52025;SDS011;38041;40.058;18.328;2023-03-01T00:13:44;30.70;;;3.23;;
52025;SDS011;38041;40.058;18.328;2023-03-01T00:16:14;20.50;;;4.13;;
52025;SDS011;38041;40.058;18.328;2023-03-01T00:18:42;23.83;;;3.70;;
52025;SDS011;38041;40.058;18.328;2023-03-01T00:21:10;34.23;;;4.60;;
52025;SDS011;38041;40.058;18.328;2023-03-01T00:23:37;32.80;;;4.33;;
52025;SDS011;38041;40.058;18.328;2023-03-01T00:26:06;25.73;;;5.03;;
52025;SDS011;38041;40.058;18.328;2023-03-01T00:28:34;30.93;;;5.67;;
52025;SDS011;38041;40.058;18.328;2023-03-01T00:31:05;21.47;;;3.93;;
52025;SDS011;38041;40.058;18.328;2023-03-01T00:33:33;32.80;;;4.97;;
52025;SDS011;38041;40.058;18.328;2023-03-01T00:36:02;32.07;;;12.43;;
52025;SDS011;38041;40.058;18.328;2023-03-01T00:38:29;41.40;;;11.40;;
52025;SDS011;38041;40.058;18.328;2023-03-01T00:41:02;30.53;;;9.47;;
52025;SDS011;38041;40.058;18.328;2023-03-01T00:43:30;31.27;;;10.20;;
52025;SDS011;38041;40.058;18.328;2023-03-01T00:46:04;41.97;;;10.23;;
52025;SDS011;38041;40.058;18.328;2023-03-01T00:48:32;25.13;;;7.00;;
52025;SDS011;38041;40.058;18.328;2023-03-01T00:51:07;24.70;;;6.47;;
52025;SDS011;38041;40.058;18.328;2023-03-01T00:53:35;31.45;;;7.63;;
52025;SDS011;38041;40.058;18.328;2023-03-01T00:56:03;24.13;;;7.20;;
52025;SDS011;38041;40.058;18.328;2023-03-01T00:58:32;21.67;;;6.17;;
52025;SDS011;38041;40.058;18.328;2023-03-01T01:01:00;33.97;;;8.27;;
52025;SDS011;38041;40.058;18.328;2023-03-01T01:03:27;25.00;;;4.27;;
52025;SDS011;38041;40.058;18.328;2023-03-01T01:05:55;35.17;;;6.80;;
52025;SDS011;38041;40.058;18.328;2023-03-01T01:08:23;40.27;;;5.40;;
52025;SDS011;38041;40.058;18.328;2023-03-01T01:10:50;31.63;;;4.83;;
52025;SDS011;38041;40.058;18.328;2023-03-01T01:13:18;36.97;;;5.80;;
52025;SDS011;38041;40.058;18.328;2023-03-01T01:15:46;29.53;;;4.63;;
52025;SDS011;38041;40.058;18.328;2023-03-01T01:18:13;28.37;;;4.73;;
52025;SDS011;38041;40.058;18.328;2023-03-01T01:20:41;30.80;;;6.87;;
52025;SDS011;38041;40.058;18.328;2023-03-01T01:23:09;35.53;;;5.23;;
52025;SDS011;38041;40.058;18.328;2023-03-01T01:25:36;27.00;;;6.33;;
52025;SDS011;38041;40.058;18.328;2023-03-01T01:28:04;39.23;;;5.83;;
52025;SDS011;38041;40.058;18.328;2023-03-01T01:30:32;33.20;;;6.20;;
52025;SDS011;38041;40.058;18.328;2023-03-01T01:32:59;37.07;;;5.47;;
52025;SDS011;38041;40.058;18.328;2023-03-01T01:35:27;40.30;;;6.53;;
52025;SDS011;38041;40.058;18.328;2023-03-01T01:37:55;24.57;;;5.87;;
52025;SDS011;38041;40.058;18.328;2023-03-01T01:40:22;34.97;;;6.07;;
52025;SDS011;38041;40.058;18.328;2023-03-01T01:42:50;32.23;;;7.23;;
52025;SDS011;38041;40.058;18.328;2023-03-01T01:45:26;33.47;;;7.50;;
52025;SDS011;38041;40.058;18.328;2023-03-01T01:47:55;43.13;;;8.03;;
52025;SDS011;38041;40.058;18.328;2023-03-01T01:50:24;38.33;;;7.73;;
52025;SDS011;38041;40.058;18.328;2023-03-01T01:52:52;38.13;;;8.67;;
52025;SDS011;38041;40.058;18.328;2023-03-01T01:55:22;51.07;;;7.73;;
52025;SDS011;38041;40.058;18.328;2023-03-01T01:57:55;41.00;;;8.20;;
52025;SDS011;38041;40.058;18.328;2023-03-01T02:00:24;37.87;;;8.30;;
52025;SDS011;38041;40.058;18.328;2023-03-01T02:03:03;47.57;;;10.30;;
52025;SDS011;38041;40.058;18.328;2023-03-01T02:08:06;37.63;;;10.77;;
52025;SDS011;38041;40.058;18.328;2023-03-01T02:10:34;36.50;;;10.00;;
52025;SDS011;38041;40.058;18.328;2023-03-01T02:13:02;45.63;;;9.13;;
52025;SDS011;38041;40.058;18.328;2023-03-01T02:15:33;46.23;;;12.63;;
52025;SDS011;38041;40.058;18.328;2023-03-01T02:18:02;48.73;;;12.17;;
52025;SDS011;38041;40.058;18.328;2023-03-01T02:23:17;58.70;;;13.47;;
52025;SDS011;38041;40.058;18.328;2023-03-01T02:30:47;38.27;;;13.90;;
52025;SDS011;38041;40.058;18.328;2023-03-01T02:33:36;52.73;;;16.87;;
52025;SDS011;38041;40.058;18.328;2023-03-01T02:36:07;43.87;;;16.77;;
52025;SDS011;38041;40.058;18.328;2023-03-01T02:38:35;59.33;;;15.63;;
52025;SDS011;38041;40.058;18.328;2023-03-01T02:41:03;55.90;;;15.47;;
52025;SDS011;38041;40.058;18.328;2023-03-01T02:43:32;42.57;;;16.77;;
52025;SDS011;38041;40.058;18.328;2023-03-01T02:46:05;56.73;;;15.27;;
52025;SDS011;38041;40.058;18.328;2023-03-01T02:48:47;49.23;;;16.93;;
52025;SDS011;38041;40.058;18.328;2023-03-01T02:51:31;53.43;;;15.73;;
52025;SDS011;38041;40.058;18.328;2023-03-01T02:56:39;50.60;;;15.53;;
52025;SDS011;38041;40.058;18.328;2023-03-01T02:59:07;51.37;;;15.13;;
52025;SDS011;38041;40.058;18.328;2023-03-01T03:01:36;47.03;;;16.50;;
52025;SDS011;38041;40.058;18.328;2023-03-01T03:04:07;46.20;;;14.67;;
52025;SDS011;38041;40.058;18.328;2023-03-01T03:06:37;53.87;;;14.00;;
52025;SDS011;38041;40.058;18.328;2023-03-01T03:09:05;52.70;;;15.33;;
52025;SDS011;38041;40.058;18.328;2023-03-01T03:11:34;59.13;;;16.60;;
52025;SDS011;38041;40.058;18.328;2023-03-01T03:14:03;58.23;;;15.50;;
52025;SDS011;38041;40.058;18.328;2023-03-01T03:16:31;47.13;;;15.67;;
52025;SDS011;38041;40.058;18.328;2023-03-01T03:18:59;49.20;;;14.53;;
52025;SDS011;38041;40.058;18.328;2023-03-01T03:21:32;47.53;;;14.77;;
52025;SDS011;38041;40.058;18.328;2023-03-01T03:24:00;54.87;;;18.57;;
52025;SDS011;38041;40.058;18.328;2023-03-01T03:26:28;46.87;;;15.80;;
52025;SDS011;38041;40.058;18.328;2023-03-01T03:28:56;60.70;;;15.73;;
52025;SDS011;38041;40.058;18.328;2023-03-01T03:31:23;44.23;;;16.30;;
52025;SDS011;38041;40.058;18.328;2023-03-01T03:33:51;51.63;;;17.27;;
52025;SDS011;38041;40.058;18.328;2023-03-01T03:36:20;56.53;;;17.77;;
52025;SDS011;38041;40.058;18.328;2023-03-01T03:38:48;44.27;;;16.77;;
52025;SDS011;38041;40.058;18.328;2023-03-01T03:41:16;55.37;;;18.90;;
52025;SDS011;38041;40.058;18.328;2023-03-01T03:43:44;49.87;;;17.07;;
52025;SDS011;38041;40.058;18.328;2023-03-01T03:46:12;52.63;;;17.17;;
52025;SDS011;38041;40.058;18.328;2023-03-01T03:48:41;53.07;;;19.47;;
52025;SDS011;38041;40.058;18.328;2023-03-01T03:51:15;44.00;;;18.20;;
52025;SDS011;38041;40.058;18.328;2023-03-01T03:53:43;48.75;;;18.17;;
52025;SDS011;38041;40.058;18.328;2023-03-01T03:56:11;58.57;;;18.90;;
52025;SDS011;38041;40.058;18.328;2023-03-01T03:58:39;66.57;;;21.20;;
52025;SDS011;38041;40.058;18.328;2023-03-01T04:01:07;53.03;;;18.87;;
52025;SDS011;38041;40.058;18.328;2023-03-01T04:03:35;58.73;;;19.27;;
52025;SDS011;38041;40.058;18.328;2023-03-01T04:06:03;47.40;;;18.77;;
52025;SDS011;38041;40.058;18.328;2023-03-01T04:08:31;51.93;;;16.93;;
52025;SDS011;38041;40.058;18.328;2023-03-01T04:11:00;62.83;;;18.20;;
52025;SDS011;38041;40.058;18.328;2023-03-01T04:13:48;57.80;;;19.27;;
52025;SDS011;38041;40.058;18.328;2023-03-01T04:16:16;58.73;;;20.97;;
52025;SDS011;38041;40.058;18.328;2023-03-01T04:18:44;56.20;;;20.37;;
52025;SDS011;38041;40.058;18.328;2023-03-01T04:21:12;54.93;;;20.17;;
52025;SDS011;38041;40.058;18.328;2023-03-01T04:23:39;57.83;;;19.67;;
52025;SDS011;38041;40.058;18.328;2023-03-01T04:26:07;59.50;;;21.30;;
52025;SDS011;38041;40.058;18.328;2023-03-01T04:28:37;48.40;;;20.43;;
52025;SDS011;38041;40.058;18.328;2023-03-01T04:31:07;52.37;;;19.57;;
52025;SDS011;38041;40.058;18.328;2023-03-01T04:36:11;64.83;;;20.10;;
52025;SDS011;38041;40.058;18.328;2023-03-01T04:38:39;54.80;;;21.20;;
52025;SDS011;38041;40.058;18.328;2023-03-01T04:41:08;55.77;;;21.37;;
52025;SDS011;38041;40.058;18.328;2023-03-01T04:43:36;43.33;;;18.97;;
52025;SDS011;38041;40.058;18.328;2023-03-01T04:46:06;49.17;;;20.53;;
52025;SDS011;38041;40.058;18.328;2023-03-01T04:48:36;52.07;;;19.83;;
52025;SDS011;38041;40.058;18.328;2023-03-01T04:51:04;60.47;;;21.13;;
52025;SDS011;38041;40.058;18.328;2023-03-01T04:53:32;59.70;;;19.10;;
52025;SDS011;38041;40.058;18.328;2023-03-01T04:56:00;66.43;;;21.90;;
52025;SDS011;38041;40.058;18.328;2023-03-01T04:58:28;73.00;;;21.60;;
52025;SDS011;38041;40.058;18.328;2023-03-01T05:00:55;64.60;;;23.20;;
52025;SDS011;38041;40.058;18.328;2023-03-01T05:03:23;61.67;;;20.70;;
52025;SDS011;38041;40.058;18.328;2023-03-01T05:05:51;50.17;;;21.53;;
52025;SDS011;38041;40.058;18.328;2023-03-01T05:08:19;53.60;;;20.97;;
52025;SDS011;38041;40.058;18.328;2023-03-01T05:10:51;62.87;;;22.63;;
52025;SDS011;38041;40.058;18.328;2023-03-01T05:13:20;48.40;;;19.90;;
52025;SDS011;38041;40.058;18.328;2023-03-01T05:15:54;55.93;;;21.53;;
52025;SDS011;38041;40.058;18.328;2023-03-01T05:18:23;60.17;;;21.60;;
52025;SDS011;38041;40.058;18.328;2023-03-01T05:20:53;65.10;;;22.83;;
52025;SDS011;38041;40.058;18.328;2023-03-01T05:23:22;66.93;;;22.83;;
52025;SDS011;38041;40.058;18.328;2023-03-01T05:25:50;77.03;;;22.27;;
52025;SDS011;38041;40.058;18.328;2023-03-01T05:28:19;54.57;;;21.07;;
52025;SDS011;38041;40.058;18.328;2023-03-01T05:30:47;58.73;;;22.60;;
52025;SDS011;38041;40.058;18.328;2023-03-01T05:33:18;60.93;;;22.37;;
52025;SDS011;38041;40.058;18.328;2023-03-01T05:35:48;53.40;;;23.40;;
52025;SDS011;38041;40.058;18.328;2023-03-01T05:38:17;70.13;;;24.33;;
52025;SDS011;38041;40.058;18.328;2023-03-01T05:40:46;65.77;;;23.20;;
52025;SDS011;38041;40.058;18.328;2023-03-01T05:43:14;51.27;;;22.70;;
52025;SDS011;38041;40.058;18.328;2023-03-01T05:45:42;63.37;;;24.27;;
52025;SDS011;38041;40.058;18.328;2023-03-01T05:48:10;60.97;;;23.57;;
52025;SDS011;38041;40.058;18.328;2023-03-01T05:50:42;67.23;;;21.90;;
52025;SDS011;38041;40.058;18.328;2023-03-01T05:55:38;57.60;;;23.20;;
52025;SDS011;38041;40.058;18.328;2023-03-01T05:58:10;62.57;;;24.83;;
52025;SDS011;38041;40.058;18.328;2023-03-01T06:00:40;64.50;;;23.87;;
52025;SDS011;38041;40.058;18.328;2023-03-01T06:03:09;59.33;;;25.13;;
52025;SDS011;38041;40.058;18.328;2023-03-01T06:05:38;65.10;;;22.13;;
52025;SDS011;38041;40.058;18.328;2023-03-01T06:08:06;62.17;;;24.83;;
52025;SDS011;38041;40.058;18.328;2023-03-01T06:10:33;58.73;;;23.97;;
52025;SDS011;38041;40.058;18.328;2023-03-01T06:13:01;62.73;;;24.00;;
52025;SDS011;38041;40.058;18.328;2023-03-01T06:15:30;65.50;;;24.97;;
52025;SDS011;38041;40.058;18.328;2023-03-01T06:17:58;61.80;;;26.13;;
52025;SDS011;38041;40.058;18.328;2023-03-01T06:20:27;60.10;;;23.93;;
52025;SDS011;38041;40.058;18.328;2023-03-01T06:22:54;73.03;;;26.57;;
52025;SDS011;38041;40.058;18.328;2023-03-01T06:25:23;66.87;;;25.60;;
52025;SDS011;38041;40.058;18.328;2023-03-01T06:27:51;77.13;;;28.90;;
52025;SDS011;38041;40.058;18.328;2023-03-01T06:30:20;84.20;;;27.43;;
52025;SDS011;38041;40.058;18.328;2023-03-01T06:32:48;67.77;;;25.27;;
52025;SDS011;38041;40.058;18.328;2023-03-01T06:35:16;64.73;;;26.97;;
52025;SDS011;38041;40.058;18.328;2023-03-01T06:37:45;65.17;;;26.13;;
52025;SDS011;38041;40.058;18.328;2023-03-01T06:40:13;67.00;;;24.30;;
52025;SDS011;38041;40.058;18.328;2023-03-01T06:42:43;62.97;;;25.00;;
52025;SDS011;38041;40.058;18.328;2023-03-01T06:45:11;63.03;;;25.20;;
52025;SDS011;38041;40.058;18.328;2023-03-01T06:47:39;70.43;;;26.80;;
52025;SDS011;38041;40.058;18.328;2023-03-01T06:50:07;78.10;;;26.97;;
52025;SDS011;38041;40.058;18.328;2023-03-01T06:52:34;65.47;;;25.77;;
52025;SDS011;38041;40.058;18.328;2023-03-01T06:55:02;70.03;;;25.57;;
52025;SDS011;38041;40.058;18.328;2023-03-01T06:57:30;30.33;;;12.43;;
52025;SDS011;38041;40.058;18.328;2023-03-01T06:59:58;32.77;;;15.73;;
52025;SDS011;38041;40.058;18.328;2023-03-01T07:02:26;60.63;;;22.93;;
52025;SDS011;38041;40.058;18.328;2023-03-01T07:04:53;52.07;;;23.47;;
52025;SDS011;38041;40.058;18.328;2023-03-01T07:07:21;58.27;;;22.47;;
52025;SDS011;38041;40.058;18.328;2023-03-01T07:09:49;52.00;;;21.77;;
52025;SDS011;38041;40.058;18.328;2023-03-01T07:12:17;52.50;;;22.97;;
52025;SDS011;38041;40.058;18.328;2023-03-01T07:14:45;50.80;;;20.33;;
52025;SDS011;38041;40.058;18.328;2023-03-01T07:17:12;60.70;;;22.53;;
52025;SDS011;38041;40.058;18.328;2023-03-01T07:19:40;55.33;;;20.87;;
52025;SDS011;38041;40.058;18.328;2023-03-01T07:22:07;44.70;;;21.07;;
52025;SDS011;38041;40.058;18.328;2023-03-01T07:24:35;59.37;;;20.97;;
52025;SDS011;38041;40.058;18.328;2023-03-01T07:27:03;54.03;;;23.60;;
52025;SDS011;38041;40.058;18.328;2023-03-01T07:29:31;58.83;;;24.07;;
52025;SDS011;38041;40.058;18.328;2023-03-01T07:31:59;49.90;;;20.53;;
52025;SDS011;38041;40.058;18.328;2023-03-01T07:34:26;59.13;;;23.07;;
52025;SDS011;38041;40.058;18.328;2023-03-01T07:36:54;54.30;;;21.00;;
52025;SDS011;38041;40.058;18.328;2023-03-01T07:39:22;50.40;;;22.40;;
52025;SDS011;38041;40.058;18.328;2023-03-01T07:41:50;59.33;;;22.10;;
52025;SDS011;38041;40.058;18.328;2023-03-01T07:44:20;56.40;;;22.20;;
52025;SDS011;38041;40.058;18.328;2023-03-01T07:46:48;80.20;;;25.33;;
52025;SDS011;38041;40.058;18.328;2023-03-01T07:49:16;63.17;;;28.67;;
52025;SDS011;38041;40.058;18.328;2023-03-01T07:51:44;63.43;;;27.00;;
52025;SDS011;38041;40.058;18.328;2023-03-01T07:54:12;67.80;;;26.00;;
52025;SDS011;38041;40.058;18.328;2023-03-01T07:56:39;66.77;;;27.43;;
52025;SDS011;38041;40.058;18.328;2023-03-01T07:59:07;68.50;;;24.27;;
52025;SDS011;38041;40.058;18.328;2023-03-01T08:01:35;67.57;;;24.27;;
52025;SDS011;38041;40.058;18.328;2023-03-01T08:04:03;58.87;;;22.67;;
52025;SDS011;38041;40.058;18.328;2023-03-01T08:06:34;64.83;;;22.30;;
52025;SDS011;38041;40.058;18.328;2023-03-01T08:09:02;75.13;;;22.67;;
52025;SDS011;38041;40.058;18.328;2023-03-01T08:11:30;56.63;;;20.73;;
52025;SDS011;38041;40.058;18.328;2023-03-01T08:13:58;63.27;;;21.83;;
52025;SDS011;38041;40.058;18.328;2023-03-01T08:16:25;65.90;;;24.03;;
52025;SDS011;38041;40.058;18.328;2023-03-01T08:18:53;69.00;;;21.90;;
52025;SDS011;38041;40.058;18.328;2023-03-01T08:21:23;64.20;;;22.67;;
52025;SDS011;38041;40.058;18.328;2023-03-01T08:23:51;64.03;;;21.87;;
52025;SDS011;38041;40.058;18.328;2023-03-01T08:26:19;57.30;;;21.50;;
52025;SDS011;38041;40.058;18.328;2023-03-01T08:28:48;53.93;;;21.20;;
52025;SDS011;38041;40.058;18.328;2023-03-01T08:31:19;61.63;;;20.10;;
52025;SDS011;38041;40.058;18.328;2023-03-01T08:33:48;55.93;;;19.00;;
52025;SDS011;38041;40.058;18.328;2023-03-01T08:36:24;56.00;;;20.47;;
52025;SDS011;38041;40.058;18.328;2023-03-01T08:38:52;65.73;;;18.43;;
52025;SDS011;38041;40.058;18.328;2023-03-01T08:41:20;63.97;;;21.03;;
52025;SDS011;38041;40.058;18.328;2023-03-01T08:43:48;70.07;;;18.37;;
52025;SDS011;38041;40.058;18.328;2023-03-01T08:46:16;61.50;;;19.50;;
52025;SDS011;38041;40.058;18.328;2023-03-01T08:48:43;69.73;;;17.63;;
52025;SDS011;38041;40.058;18.328;2023-03-01T08:51:12;59.20;;;17.27;;
52025;SDS011;38041;40.058;18.328;2023-03-01T08:53:40;58.60;;;16.33;;
52025;SDS011;38041;40.058;18.328;2023-03-01T08:56:08;52.83;;;14.37;;
52025;SDS011;38041;40.058;18.328;2023-03-01T08:58:36;48.13;;;13.23;;
52025;SDS011;38041;40.058;18.328;2023-03-01T09:01:06;57.63;;;11.07;;
52025;SDS011;38041;40.058;18.328;2023-03-01T09:03:34;47.43;;;12.00;;
52025;SDS011;38041;40.058;18.328;2023-03-01T09:06:02;50.87;;;14.53;;
52025;SDS011;38041;40.058;18.328;2023-03-01T09:08:30;65.27;;;19.33;;
52025;SDS011;38041;40.058;18.328;2023-03-01T09:10:58;54.50;;;15.33;;
52025;SDS011;38041;40.058;18.328;2023-03-01T09:13:28;65.63;;;21.03;;
52025;SDS011;38041;40.058;18.328;2023-03-01T09:15:59;54.23;;;14.07;;
52025;SDS011;38041;40.058;18.328;2023-03-01T09:18:27;64.30;;;17.40;;
52025;SDS011;38041;40.058;18.328;2023-03-01T09:21:05;57.50;;;20.00;;
52025;SDS011;38041;40.058;18.328;2023-03-01T09:23:34;52.77;;;16.07;;
52025;SDS011;38041;40.058;18.328;2023-03-01T09:26:06;67.90;;;22.03;;
52025;SDS011;38041;40.058;18.328;2023-03-01T09:28:35;56.40;;;15.27;;
52025;SDS011;38041;40.058;18.328;2023-03-01T09:31:03;54.73;;;14.30;;
52025;SDS011;38041;40.058;18.328;2023-03-01T09:33:31;57.03;;;18.67;;
52025;SDS011;38041;40.058;18.328;2023-03-01T09:36:00;53.33;;;14.00;;
52025;SDS011;38041;40.058;18.328;2023-03-01T09:38:28;56.10;;;17.50;;
52025;SDS011;38041;40.058;18.328;2023-03-01T09:40:56;48.77;;;12.50;;
52025;SDS011;38041;40.058;18.328;2023-03-01T09:43:59;56.37;;;15.27;;
52025;SDS011;38041;40.058;18.328;2023-03-01T09:46:22;69.47;;;26.83;;
52025;SDS011;38041;40.058;18.328;2023-03-01T09:48:51;53.27;;;14.43;;
52025;SDS011;38041;40.058;18.328;2023-03-01T09:51:31;58.90;;;12.17;;
52025;SDS011;38041;40.058;18.328;2023-03-01T09:54:03;59.13;;;14.27;;
52025;SDS011;38041;40.058;18.328;2023-03-01T09:59:06;70.80;;;26.17;;
52025;SDS011;38041;40.058;18.328;2023-03-01T10:09:23;77.00;;;25.07;;
52025;SDS011;38041;40.058;18.328;2023-03-01T10:11:54;67.77;;;23.13;;
52025;SDS011;38041;40.058;18.328;2023-03-01T10:17:03;123.67;;;72.27;;
52025;SDS011;38041;40.058;18.328;2023-03-01T10:19:33;78.37;;;32.10;;
52025;SDS011;38041;40.058;18.328;2023-03-01T10:22:13;78.43;;;31.67;;
52025;SDS011;38041;40.058;18.328;2023-03-01T10:24:42;74.23;;;22.03;;
52025;SDS011;38041;40.058;18.328;2023-03-01T10:27:14;60.03;;;16.80;;
52025;SDS011;38041;40.058;18.328;2023-03-01T10:32:12;173.07;;;99.57;;
52025;SDS011;38041;40.058;18.328;2023-03-01T10:34:40;110.53;;;46.90;;
52025;SDS011;38041;40.058;18.328;2023-03-01T10:37:12;79.90;;;28.77;;
52025;SDS011;38041;40.058;18.328;2023-03-01T10:40:02;80.57;;;32.47;;
52025;SDS011;38041;40.058;18.328;2023-03-01T10:42:38;136.90;;;65.43;;
52025;SDS011;38041;40.058;18.328;2023-03-01T10:48:02;90.43;;;26.03;;
52025;SDS011;38041;40.058;18.328;2023-03-01T10:50:30;95.43;;;39.40;;
52025;SDS011;38041;40.058;18.328;2023-03-01T10:53:00;97.20;;;39.50;;
52025;SDS011;38041;40.058;18.328;2023-03-01T10:55:33;108.90;;;57.80;;
52025;SDS011;38041;40.058;18.328;2023-03-01T11:00:46;79.10;;;22.03;;
52025;SDS011;38041;40.058;18.328;2023-03-01T11:03:15;109.63;;;52.77;;
52025;SDS011;38041;40.058;18.328;2023-03-01T11:05:51;113.23;;;50.97;;
52025;SDS011;38041;40.058;18.328;2023-03-01T11:08:38;77.37;;;29.57;;
52025;SDS011;38041;40.058;18.328;2023-03-01T11:13:37;117.20;;;55.33;;
52025;SDS011;38041;40.058;18.328;2023-03-01T11:16:06;95.10;;;44.60;;
52025;SDS011;38041;40.058;18.328;2023-03-01T11:18:35;95.77;;;46.80;;
52025;SDS011;38041;40.058;18.328;2023-03-01T11:21:13;92.97;;;41.87;;
52025;SDS011;38041;40.058;18.328;2023-03-01T11:23:41;66.47;;;24.47;;
52025;SDS011;38041;40.058;18.328;2023-03-01T11:26:10;59.07;;;16.30;;
52025;SDS011;38041;40.058;18.328;2023-03-01T11:28:40;79.43;;;27.10;;
52025;SDS011;38041;40.058;18.328;2023-03-01T11:31:10;50.97;;;15.10;;
52025;SDS011;38041;40.058;18.328;2023-03-01T11:36:19;58.93;;;16.57;;
52025;SDS011;38041;40.058;18.328;2023-03-01T11:38:50;89.23;;;22.17;;
52025;SDS011;38041;40.058;18.328;2023-03-01T11:41:19;59.47;;;18.93;;
52025;SDS011;38041;40.058;18.328;2023-03-01T11:51:45;55.07;;;13.93;;
52025;SDS011;38041;40.058;18.328;2023-03-01T11:54:26;60.95;;;14.48;;
52025;SDS011;38041;40.058;18.328;2023-03-01T11:57:00;65.30;;;22.43;;
52025;SDS011;38041;40.058;18.328;2023-03-01T12:07:10;69.20;;;24.27;;
52025;SDS011;38041;40.058;18.328;2023-03-01T12:22:29;81.60;;;24.42;;
52025;SDS011;38041;40.058;18.328;2023-03-01T12:27:54;80.33;;;18.70;;
52025;SDS011;38041;40.058;18.328;2023-03-01T12:45:47;58.57;;;17.97;;
52025;SDS011;38041;40.058;18.328;2023-03-01T12:50:48;68.57;;;16.60;;
52025;SDS011;38041;40.058;18.328;2023-03-01T12:53:34;42.07;;;9.90;;
52025;SDS011;38041;40.058;18.328;2023-03-01T12:56:07;51.90;;;10.30;;
52025;SDS011;38041;40.058;18.328;2023-03-01T12:58:42;51.08;;;8.77;;
52025;SDS011;38041;40.058;18.328;2023-03-01T13:11:40;56.88;;;12.55;;
52025;SDS011;38041;40.058;18.328;2023-03-01T13:16:50;41.50;;;14.40;;
52025;SDS011;38041;40.058;18.328;2023-03-01T13:19:22;62.00;;;15.75;;
52025;SDS011;38041;40.058;18.328;2023-03-01T13:21:51;72.40;;;30.17;;
52025;SDS011;38041;40.058;18.328;2023-03-01T13:29:56;56.13;;;22.10;;
52025;SDS011;38041;40.058;18.328;2023-03-01T13:32:29;45.13;;;12.03;;
52025;SDS011;38041;40.058;18.328;2023-03-01T13:37:43;52.43;;;10.10;;
52025;SDS011;38041;40.058;18.328;2023-03-01T13:42:45;54.80;;;16.70;;
52025;SDS011;38041;40.058;18.328;2023-03-01T13:48:09;40.53;;;4.23;;
52025;SDS011;38041;40.058;18.328;2023-03-01T13:50:42;39.70;;;4.80;;
52025;SDS011;38041;40.058;18.328;2023-03-01T13:53:14;51.70;;;4.93;;
52025;SDS011;38041;40.058;18.328;2023-03-01T14:00:42;46.07;;;5.50;;
52025;SDS011;38041;40.058;18.328;2023-03-01T14:03:14;42.90;;;6.50;;
52025;SDS011;38041;40.058;18.328;2023-03-01T14:05:56;45.07;;;7.23;;
52025;SDS011;38041;40.058;18.328;2023-03-01T14:08:36;46.93;;;5.23;;
52025;SDS011;38041;40.058;18.328;2023-03-01T14:16:21;52.83;;;6.47;;
52025;SDS011;38041;40.058;18.328;2023-03-01T14:18:54;42.63;;;5.37;;
52025;SDS011;38041;40.058;18.328;2023-03-01T14:21:25;53.37;;;6.30;;
52025;SDS011;38041;40.058;18.328;2023-03-01T14:23:53;39.20;;;4.20;;
52025;SDS011;38041;40.058;18.328;2023-03-01T14:26:21;53.70;;;4.77;;
52025;SDS011;38041;40.058;18.328;2023-03-01T14:28:49;45.63;;;5.47;;
52025;SDS011;38041;40.058;18.328;2023-03-01T14:34:21;43.17;;;10.10;;
52025;SDS011;38041;40.058;18.328;2023-03-01T14:36:49;43.03;;;10.97;;
52025;SDS011;38041;40.058;18.328;2023-03-01T14:39:18;63.33;;;14.57;;
52025;SDS011;38041;40.058;18.328;2023-03-01T14:41:46;61.53;;;23.00;;
52025;SDS011;38041;40.058;18.328;2023-03-01T14:44:16;57.07;;;17.43;;
52025;SDS011;38041;40.058;18.328;2023-03-01T14:46:51;70.90;;;27.37;;
52025;SDS011;38041;40.058;18.328;2023-03-01T14:49:20;63.43;;;26.93;;
52025;SDS011;38041;40.058;18.328;2023-03-01T14:51:53;39.37;;;9.13;;
52025;SDS011;38041;40.058;18.328;2023-03-01T14:54:41;49.13;;;18.17;;
52025;SDS011;38041;40.058;18.328;2023-03-01T14:57:13;83.93;;;33.43;;
52025;SDS011;38041;40.058;18.328;2023-03-01T14:59:42;49.73;;;21.43;;
52025;SDS011;38041;40.058;18.328;2023-03-01T15:02:15;60.23;;;24.60;;
52025;SDS011;38041;40.058;18.328;2023-03-01T15:04:45;50.83;;;23.17;;
52025;SDS011;38041;40.058;18.328;2023-03-01T15:07:14;53.47;;;22.73;;
52025;SDS011;38041;40.058;18.328;2023-03-01T15:09:41;44.87;;;21.77;;
52025;SDS011;38041;40.058;18.328;2023-03-01T15:14:53;39.80;;;18.67;;
52025;SDS011;38041;40.058;18.328;2023-03-01T15:20:02;74.93;;;35.70;;
52025;SDS011;38041;40.058;18.328;2023-03-01T15:22:30;41.77;;;16.93;;
52025;SDS011;38041;40.058;18.328;2023-03-01T15:24:58;42.33;;;16.40;;
52025;SDS011;38041;40.058;18.328;2023-03-01T15:27:26;32.92;;;6.57;;
52025;SDS011;38041;40.058;18.328;2023-03-01T15:32:26;29.52;;;6.47;;
52025;SDS011;38041;40.058;18.328;2023-03-01T15:34:55;30.05;;;5.78;;
52025;SDS011;38041;40.058;18.328;2023-03-01T15:40:17;34.95;;;11.32;;
52025;SDS011;38041;40.058;18.328;2023-03-01T15:42:46;47.00;;;16.42;;
52025;SDS011;38041;40.058;18.328;2023-03-01T15:47:46;45.92;;;14.60;;
52025;SDS011;38041;40.058;18.328;2023-03-01T15:50:25;51.95;;;15.27;;
52025;SDS011;38041;40.058;18.328;2023-03-01T15:52:54;50.53;;;14.20;;
52025;SDS011;38041;40.058;18.328;2023-03-01T15:55:23;36.53;;;10.60;;
52025;SDS011;38041;40.058;18.328;2023-03-01T16:00:27;41.50;;;7.13;;
52025;SDS011;38041;40.058;18.328;2023-03-01T16:02:56;31.10;;;8.00;;
52025;SDS011;38041;40.058;18.328;2023-03-01T16:05:25;33.80;;;14.00;;
52025;SDS011;38041;40.058;18.328;2023-03-01T16:07:53;37.45;;;8.40;;
52025;SDS011;38041;40.058;18.328;2023-03-01T16:10:21;33.10;;;5.65;;
52025;SDS011;38041;40.058;18.328;2023-03-01T16:12:50;39.92;;;6.45;;
52025;SDS011;38041;40.058;18.328;2023-03-01T16:15:20;51.22;;;17.58;;
52025;SDS011;38041;40.058;18.328;2023-03-01T16:17:48;55.70;;;16.53;;
52025;SDS011;38041;40.058;18.328;2023-03-01T16:20:21;28.47;;;4.87;;
52025;SDS011;38041;40.058;18.328;2023-03-01T16:22:54;44.07;;;14.90;;
52025;SDS011;38041;40.058;18.328;2023-03-01T16:25:21;22.23;;;4.23;;
52025;SDS011;38041;40.058;18.328;2023-03-01T16:27:49;29.57;;;7.10;;
52025;SDS011;38041;40.058;18.328;2023-03-01T16:30:18;44.97;;;12.47;;
52025;SDS011;38041;40.058;18.328;2023-03-01T16:32:47;31.73;;;5.10;;
52025;SDS011;38041;40.058;18.328;2023-03-01T16:35:16;30.13;;;5.10;;
52025;SDS011;38041;40.058;18.328;2023-03-01T16:37:44;36.20;;;9.50;;
52025;SDS011;38041;40.058;18.328;2023-03-01T16:42:40;32.07;;;6.50;;
52025;SDS011;38041;40.058;18.328;2023-03-01T16:45:08;26.47;;;3.87;;
52025;SDS011;38041;40.058;18.328;2023-03-01T16:47:48;39.07;;;12.33;;
52025;SDS011;38041;40.058;18.328;2023-03-01T16:50:16;22.80;;;4.57;;
52025;SDS011;38041;40.058;18.328;2023-03-01T16:52:44;24.80;;;3.47;;
52025;SDS011;38041;40.058;18.328;2023-03-01T16:55:12;24.67;;;5.93;;
52025;SDS011;38041;40.058;18.328;2023-03-01T16:57:39;40.57;;;6.70;;